Time;durP1;ratioP1;P1;durP2;ratioP2;P2;SDS_P1;SDS_P2;PMS_P1;PMS_P2;Temp;Humidity;BMP_temperature;BMP_pressure;BME280_temperature;BME280_humidity;BME280_pressure;Samples;Min_cycle;Max_cycle;Signal;HPM_P1;HPM_P2
2022/06/21 00:00:59;;;;;;;6.12;2.37;;;;;;;19.40;52.19;99247.34;1718080;83;21001;-71
2022/06/21 00:03:25;;;;;;;4.45;2.08;;;;;;;19.36;52.30;99243.92;1698722;84;22331;-72
2022/06/21 00:05:52;;;;;;;4.90;2.10;;;;;;;19.31;52.39;99242.39;1698671;83;21062;-72
2022/06/21 00:08:24;;;;;;;3.67;2.10;;;;;;;19.28;52.48;99241.45;1700884;83;21536;-71
2022/06/21 00:10:51;;;;;;;4.42;2.22;;;;;;;19.23;52.57;99231.37;1701875;84;21465;-72
2022/06/21 00:13:21;;;;;;;7.58;2.10;;;;;;;19.21;52.72;99229.94;1699012;83;20979;-73
2022/06/21 00:15:53;;;;;;;3.77;2.30;;;;;;;19.14;52.81;99232.59;1701202;83;21895;-72
2022/06/21 00:18:21;;;;;;;3.47;2.10;;;;;;;19.09;52.92;99234.53;1702534;83;20960;-72
2022/06/21 00:20:49;;;;;;;5.17;2.20;;;;;;;19.05;53.02;99235.16;1667023;84;21083;-71
2022/06/21 00:23:21;;;;;;;4.30;2.33;;;;;;;19.00;53.16;99236.27;1658109;85;21087;-71
2022/06/21 00:25:48;;;;;;;3.22;2.05;;;;;;;18.95;53.31;99236.89;1686157;83;21016;-72
2022/06/21 00:28:16;;;;;;;4.37;2.15;;;;;;;18.91;53.44;99234.30;1706062;83;22221;-72
2022/06/21 00:30:43;;;;;;;5.75;2.55;;;;;;;18.86;53.62;99232.25;1698163;84;21158;-72
2022/06/21 00:33:16;;;;;;;3.33;2.12;;;;;;;18.82;53.76;99227.52;1665710;84;21360;-72
2022/06/21 00:35:46;;;;;;;4.17;2.50;;;;;;;18.78;53.93;99228.42;1689341;84;21597;-71
2022/06/21 00:38:16;;;;;;;3.40;2.30;;;;;;;18.75;54.06;99228.02;1715977;81;21031;-71
2022/06/21 00:40:43;;;;;;;4.42;2.00;;;;;;;18.72;54.14;99219.88;1716548;81;21951;-72
2022/06/21 00:43:26;;;;;;;4.65;2.12;;;;;;;18.72;54.22;99219.03;1741004;81;20958;-72
2022/06/21 00:45:53;;;;;;;5.67;2.52;;;;;;;18.73;54.19;99223.38;1701090;81;21104;-71
2022/06/21 00:48:37;;;;;;;4.62;2.75;;;;;;;18.69;54.25;99217.59;1724065;83;20984;-71
2022/06/21 00:51:18;;;;;;;7.25;2.52;;;;;;;18.67;54.38;99212.14;1722708;83;21068;-74
2022/06/21 00:53:53;;;;;;;2.85;2.40;;;;;;;18.64;54.48;99204.50;1728130;81;21959;-72
2022/06/21 00:56:32;;;;;;;5.12;2.52;;;;;;;18.61;54.52;99203.03;1755047;80;20983;-72
2022/06/21 00:59:21;;;;;;;3.47;2.42;;;;;;;18.60;54.56;99200.05;1728603;81;20976;-73
2022/06/21 01:01:49;;;;;;;4.67;2.70;;;;;;;18.58;54.63;99202.11;1741267;80;20961;-72
2022/06/21 01:04:38;;;;;;;5.65;2.35;;;;;;;18.58;54.64;99206.13;1753505;80;21056;-72
2022/06/21 01:07:10;;;;;;;4.62;2.75;;;;;;;18.53;54.75;99204.06;1749747;80;21905;-72
2022/06/21 01:09:47;;;;;;;6.53;2.85;;;;;;;18.49;54.82;99195.30;1771103;80;21020;-72
2022/06/21 01:12:24;;;;;;;3.52;2.45;;;;;;;18.43;54.99;99195.61;1736653;80;21046;-72
2022/06/21 01:15:05;;;;;;;6.33;2.50;;;;;;;18.39;55.12;99190.33;1768786;80;21060;-72
2022/06/21 01:17:32;;;;;;;5.67;2.70;;;;;;;18.38;55.21;99192.70;1709783;82;21076;-71
2022/06/21 01:20:10;;;;;;;5.97;2.47;;;;;;;18.34;55.38;99185.30;1667656;83;22457;-71
2022/06/21 01:22:44;;;;;;;6.95;2.40;;;;;;;18.29;55.47;99188.03;1721880;81;21492;-73
2022/06/21 01:25:41;;;;;;;5.65;2.50;;;;;;;18.29;55.58;99189.89;1707897;81;20996;-73
2022/06/21 01:28:07;;;;;;;5.60;2.72;;;;;;;18.27;55.55;99184.74;1667456;81;21442;-70
2022/06/21 01:30:34;;;;;;;6.60;2.40;;;;;;;18.23;55.65;99179.47;1734555;81;21502;-71
2022/06/21 01:33:01;;;;;;;7.03;2.58;;;;;;;18.21;55.77;99174.02;1716473;81;21705;-71
2022/06/21 01:35:42;;;;;;;3.58;2.52;;;;;;;18.19;55.84;99170.22;1750365;80;20985;-70
2022/06/21 01:38:13;;;;;;;5.67;2.60;;;;;;;18.16;55.88;99171.97;1726052;80;20971;-72
2022/06/21 01:40:42;;;;;;;4.15;2.52;;;;;;;18.16;55.91;99173.30;1779877;78;20997;-71
2022/06/21 01:43:12;;;;;;;4.58;2.30;;;;;;;18.16;55.86;99177.31;1779045;78;20966;-71
2022/06/21 01:45:45;;;;;;;4.60;2.50;;;;;;;18.15;55.87;99165.48;1776102;78;21862;-71
2022/06/21 01:48:22;;;;;;;4.10;2.50;;;;;;;18.12;55.95;99165.86;1775684;78;21035;-71
2022/06/21 01:50:50;;;;;;;6.67;2.75;;;;;;;18.10;56.01;99171.92;1782889;78;21547;-71
2022/06/21 01:53:17;;;;;;;5.20;2.58;;;;;;;18.07;56.14;99173.16;1774236;79;20989;-71
2022/06/21 01:55:55;;;;;;;9.78;2.70;;;;;;;18.07;56.16;99166.99;1770352;78;21011;-73
2022/06/21 01:58:25;;;;;;;7.15;2.60;;;;;;;18.05;56.25;99161.85;1779296;78;21807;-71
2022/06/21 02:00:58;;;;;;;5.55;2.70;;;;;;;18.02;56.37;99162.23;1718789;82;20909;-72
2022/06/21 02:03:29;;;;;;;4.83;2.60;;;;;;;18.00;56.45;99164.28;1713056;82;21097;-71
2022/06/21 02:06:00;;;;;;;5.20;2.37;;;;;;;17.98;56.41;99175.17;1704077;82;21633;-72
2022/06/21 02:08:34;;;;;;;3.45;2.52;;;;;;;17.98;56.47;99168.49;1708300;82;21180;-73
2022/06/21 02:11:02;;;;;;;4.08;2.60;;;;;;;17.98;56.48;99169.01;1714683;82;21956;-73
2022/06/21 02:14:28;;;;;;;4.92;2.58;;;;;;;17.96;56.47;99170.55;1695519;83;20969;-71
2022/06/21 02:16:21;;;;;;;7.12;2.83;;;;;;;17.95;56.56;99162.22;1708415;82;21012;-70
2022/06/21 02:18:52;;;;;;;6.42;2.55;;;;;;;17.91;56.67;99156.95;1717080;82;20977;-70
2022/06/21 02:21:29;;;;;;;5.45;2.35;;;;;;;17.91;56.76;99153.45;1707269;82;20997;-71
2022/06/21 02:23:57;;;;;;;6.30;2.45;;;;;;;17.88;56.82;99154.68;1699687;82;22553;-71
2022/06/21 02:26:24;;;;;;;4.80;2.72;;;;;;;17.86;56.99;99150.05;1764539;79;21058;-73
2022/06/21 02:28:53;;;;;;;7.05;3.12;;;;;;;17.85;57.06;99144.88;1776495;78;20985;-71
2022/06/21 02:31:19;;;;;;;12.82;2.60;;;;;;;17.84;57.17;99137.90;1783933;78;20957;-71
2022/06/21 02:33:46;;;;;;;6.45;2.58;;;;;;;17.85;57.25;99139.03;1789827;78;20996;-72
2022/06/21 02:36:31;;;;;;;7.58;2.50;;;;;;;17.85;57.33;99139.55;1776584;78;22032;-70
2022/06/21 02:39:00;;;;;;;6.75;2.87;;;;;;;17.85;57.40;99144.38;1787819;78;21023;-71
2022/06/21 02:41:32;;;;;;;6.15;2.62;;;;;;;17.85;57.44;99141.70;1808418;78;21047;-71
2022/06/21 02:44:23;;;;;;;5.90;2.45;;;;;;;17.86;57.49;99137.21;1792905;78;20953;-71
2022/06/21 02:46:55;;;;;;;3.45;2.58;;;;;;;17.88;57.54;99144.51;1786561;78;21432;-73
2022/06/21 02:49:49;;;;;;;3.87;2.40;;;;;;;17.88;57.61;99135.98;1788562;78;21968;-71
2022/06/21 02:52:26;;;;;;;4.62;2.83;;;;;;;17.90;57.68;99134.44;1765927;78;20995;-72
2022/06/21 02:55:22;;;;;;;3.60;2.47;;;;;;;17.89;57.77;99130.13;1793280;78;21078;-71
2022/06/21 02:58:04;;;;;;;7.08;2.70;;;;;;;17.90;57.87;99127.77;1763601;78;20964;-71
2022/06/21 03:00:31;;;;;;;4.83;2.47;;;;;;;17.92;57.92;99125.71;1787002;78;20980;-71
2022/06/21 03:03:01;;;;;;;4.17;2.47;;;;;;;17.93;58.00;99124.17;1787863;78;21917;-71
2022/06/21 03:05:28;;;;;;;6.90;2.67;;;;;;;17.95;58.02;99119.48;1785847;79;20955;-71
2022/06/21 03:07:57;;;;;;;6.00;2.60;;;;;;;17.98;58.03;99121.73;1776880;78;21005;-72
2022/06/21 03:10:32;;;;;;;5.53;2.52;;;;;;;18.00;58.09;99115.68;1800779;78;20980;-72
2022/06/21 03:13:21;;;;;;;4.03;2.40;;;;;;;18.03;58.14;99106.43;1787532;78;21023;-71
2022/06/21 03:15:58;;;;;;;8.88;2.60;;;;;;;18.05;58.24;99101.73;1788884;80;21958;-72
2022/06/21 03:18:30;;;;;;;6.67;2.58;;;;;;;18.07;58.36;99096.19;1788719;80;20979;-72
2022/06/21 03:20:57;;;;;;;6.37;2.62;;;;;;;18.11;58.42;99097.41;1788926;80;21007;-71
2022/06/21 03:23:23;;;;;;;3.72;2.75;;;;;;;18.16;58.44;99099.80;1788354;80;21053;-72
2022/06/21 03:25:57;;;;;;;3.85;2.75;;;;;;;18.20;58.49;99097.03;1788857;79;20961;-72
2022/06/21 03:28:38;;;;;;;7.10;2.70;;;;;;;18.25;58.42;99097.77;1788638;78;21894;-73
2022/06/21 03:31:25;;;;;;;5.28;2.35;;;;;;;18.31;58.34;99099.11;1788613;78;21032;-72
2022/06/21 03:33:55;;;;;;;6.45;2.67;;;;;;;18.37;58.34;99092.14;1788729;80;20944;-72
2022/06/21 03:36:25;;;;;;;9.78;2.80;;;;;;;18.46;58.27;99092.77;1773421;80;21847;-72
2022/06/21 03:38:56;;;;;;;8.33;2.70;;;;;;;18.51;58.31;99088.44;1793505;79;20972;-72
2022/06/21 03:44:22;;;;;;;6.65;2.70;;;;;;;18.67;58.10;99084.58;1794344;79;21020;-72
2022/06/21 03:47:08;;;;;;;6.75;2.60;;;;;;;18.76;57.85;99076.66;1777186;79;20955;-71
2022/06/21 03:50:16;;;;;;;3.92;2.45;;;;;;;18.86;57.72;99081.60;1771828;79;20996;-71
2022/06/21 03:52:57;;;;;;;4.78;2.65;;;;;;;18.96;57.49;99085.20;1739833;80;20941;-71
2022/06/21 03:55:54;;;;;;;5.30;2.90;;;;;;;19.08;57.05;99074.98;1745492;80;22031;-71
2022/06/21 03:58:34;;;;;;;6.15;2.55;;;;;;;19.22;56.81;99079.00;1765944;79;21471;-72
2022/06/21 04:01:12;;;;;;;6.53;2.70;;;;;;;19.35;56.58;99074.42;1763700;79;20929;-71
2022/06/21 04:04:03;;;;;;;7.00;2.52;;;;;;;19.50;56.17;99080.06;1709460;82;21030;-72
2022/06/21 04:06:52;;;;;;;3.98;2.60;;;;;;;19.63;55.44;99076.02;1747314;80;21082;-71
2022/06/21 04:10:01;;;;;;;5.40;2.52;;;;;;;19.79;55.10;99071.53;1714949;81;22568;-71
2022/06/21 04:12:55;;;;;;;4.42;2.55;;;;;;;19.93;54.51;99073.62;1674318;84;21028;-71
2022/06/21 04:15:31;;;;;;;5.33;2.80;;;;;;;20.09;54.35;99065.61;1672470;85;21037;-71
2022/06/21 04:18:14;;;;;;;6.40;2.62;;;;;;;20.20;53.97;99059.55;1726444;82;20957;-72
2022/06/21 04:20:47;;;;;;;4.25;2.52;;;;;;;20.32;53.95;99059.67;1736244;82;20928;-71
2022/06/21 04:23:33;;;;;;;8.50;2.80;;;;;;;20.44;53.18;99053.42;1735600;82;21806;-71
2022/06/21 04:26:24;;;;;;;7.83;2.62;;;;;;;20.56;53.06;99055.72;1732614;82;20954;-71
2022/06/21 04:29:06;;;;;;;8.65;2.80;;;;;;;20.68;52.94;99057.17;1724393;81;21006;-71
2022/06/21 04:32:10;;;;;;;4.75;2.65;;;;;;;20.82;53.01;99053.84;1733549;81;21526;-71
2022/06/21 04:34:45;;;;;;;5.33;3.00;;;;;;;20.95;52.71;99051.58;1719851;81;21018;-72
2022/06/21 04:37:29;;;;;;;10.25;2.75;;;;;;;21.08;52.20;99042.86;1711138;82;22658;-76
2022/06/21 04:40:33;;;;;;;6.20;2.70;;;;;;;21.22;51.94;99040.84;1715171;81;21027;-71
2022/06/21 04:43:11;;;;;;;5.20;2.52;;;;;;;21.36;51.31;99037.02;1757629;79;21008;-73
2022/06/21 04:45:48;;;;;;;7.75;2.95;;;;;;;21.54;50.95;99035.38;1762502;79;21080;-72
2022/06/21 04:48:41;;;;;;;6.60;2.80;;;;;;;21.68;50.77;99030.11;1735931;81;21015;-72
2022/06/21 04:51:37;;;;;;;6.25;3.00;;;;;;;21.82;50.65;99029.44;1753982;81;21829;-72
2022/06/21 04:54:23;;;;;;;10.18;3.05;;;;;;;21.97;50.66;99023.11;1724499;81;21065;-72
2022/06/21 04:57:00;;;;;;;7.92;2.45;;;;;;;22.14;50.35;99022.80;1734537;80;21337;-71
2022/06/21 04:59:31;;;;;;;6.15;2.65;;;;;;;22.31;50.01;99019.45;1767297;79;21000;-74
2022/06/21 05:01:58;;;;;;;5.22;2.45;;;;;;;22.43;49.38;99015.72;1742221;80;21130;-71
2022/06/21 05:04:37;;;;;;;9.73;2.70;;;;;;;22.55;48.41;99015.20;1769999;80;22256;-71
2022/06/21 05:07:07;;;;;;;5.72;2.40;;;;;;;22.67;48.32;99017.08;1737442;81;21087;-72
2022/06/21 05:09:34;;;;;;;5.05;2.40;;;;;;;22.77;47.89;99004.67;1758755;80;21028;-71
2022/06/21 05:12:06;;;;;;;6.03;2.08;;;;;;;22.89;47.95;99002.56;1757679;79;21028;-74
2022/06/21 05:14:39;;;;;;;8.00;2.70;;;;;;;22.97;47.40;98996.30;1763511;80;21012;-72
2022/06/21 05:17:09;;;;;;;4.12;2.27;;;;;;;23.07;47.12;98993.02;1735442;80;21832;-72
2022/06/21 05:19:42;;;;;;;5.37;2.27;;;;;;;23.18;46.57;98990.00;1766881;80;21051;-72
2022/06/21 05:22:20;;;;;;;4.10;2.15;;;;;;;23.28;46.50;98989.69;1733971;81;21012;-72
2022/06/21 05:24:46;;;;;;;5.90;2.00;;;;;;;23.39;46.00;98992.05;1714216;79;21034;-72
2022/06/21 05:27:18;;;;;;;2.83;1.82;;;;;;;23.50;45.59;98989.03;1766882;80;20980;-71
2022/06/21 05:30:09;;;;;;;4.85;1.95;;;;;;;23.59;45.25;98998.41;1765670;80;22671;-70
2022/06/21 05:32:44;;;;;;;3.95;1.80;;;;;;;23.68;45.17;98995.63;1756634;81;20980;-71
2022/06/21 05:35:17;;;;;;;5.50;2.08;;;;;;;23.81;44.79;98993.98;1744834;81;20961;-71
2022/06/21 05:37:52;;;;;;;5.37;1.90;;;;;;;23.95;45.15;98983.73;1743159;81;21040;-71
2022/06/21 05:40:45;;;;;;;3.77;2.00;;;;;;;24.07;45.07;98976.38;1753163;81;20980;-71
2022/06/21 05:43:17;;;;;;;6.40;2.05;;;;;;;24.21;44.11;98971.48;1751479;81;21927;-72
2022/06/21 05:45:52;;;;;;;3.37;1.97;;;;;;;24.35;44.17;98966.09;1741895;80;21044;-72
2022/06/21 05:48:24;;;;;;;5.20;1.80;;;;;;;24.46;43.74;98966.53;1786978;78;21034;-71
2022/06/21 05:50:51;;;;;;;3.02;1.62;;;;;;;24.58;43.58;98964.27;1779987;80;20997;-72
2022/06/21 05:53:23;;;;;;;5.08;2.20;;;;;;;24.69;43.10;98959.30;1774626;80;21051;-70
2022/06/21 05:55:49;;;;;;;5.20;1.70;;;;;;;24.80;42.51;98951.63;1728142;80;21759;-71
2022/06/21 05:58:24;;;;;;;3.22;1.85;;;;;;;24.93;42.25;98954.52;1772536;78;21067;-71
2022/06/21 06:01:08;;;;;;;5.50;2.20;;;;;;;25.04;42.53;98948.22;1781237;78;21016;-71
2022/06/21 06:03:46;;;;;;;3.80;2.00;;;;;;;25.15;42.75;98943.75;1782221;78;21020;-71
2022/06/21 06:06:15;;;;;;;3.80;1.90;;;;;;;25.26;42.63;98936.05;1780563;80;20953;-73
2022/06/21 06:08:47;;;;;;;5.37;2.02;;;;;;;25.37;42.42;98937.80;1780332;80;21966;-72
2022/06/21 06:11:23;;;;;;;7.50;2.12;;;;;;;25.46;42.63;98938.98;1779432;78;21304;-74
2022/06/21 06:13:50;;;;;;;3.22;2.00;;;;;;;25.58;41.64;98941.56;1776902;80;21004;-73
2022/06/21 06:16:31;;;;;;;5.87;1.65;;;;;;;25.72;40.24;98935.23;1778867;79;21031;-73
2022/06/21 06:19:12;;;;;;;4.17;1.92;;;;;;;25.80;39.26;98932.89;1777695;78;22280;-71
2022/06/21 06:21:45;;;;;;;4.12;1.90;;;;;;;25.91;39.04;98935.15;1802294;78;22503;-71
2022/06/21 06:24:22;;;;;;;2.77;1.60;;;;;;;26.00;38.84;98929.55;1764907;78;21045;-73
2022/06/21 06:26:53;;;;;;;3.25;1.52;;;;;;;26.12;38.61;98928.84;1755466;79;21488;-71
2022/06/21 06:29:30;;;;;;;4.50;1.80;;;;;;;26.24;37.70;98928.11;1776471;78;21063;-72
2022/06/21 06:32:08;;;;;;;5.47;1.70;;;;;;;26.35;37.66;98926.33;1782699;78;21436;-72
2022/06/21 06:34:39;;;;;;;3.02;1.65;;;;;;;26.44;38.14;98926.15;1775580;80;22479;-72
2022/06/21 06:37:09;;;;;;;3.90;1.67;;;;;;;26.54;37.93;98921.34;1775915;78;21033;-71
2022/06/21 06:39:38;;;;;;;3.00;1.77;;;;;;;26.65;37.48;98913.55;1782481;78;21028;-72
2022/06/21 06:42:18;;;;;;;3.95;1.90;;;;;;;26.78;37.20;98914.97;1783206;78;21004;-72
2022/06/21 06:44:52;;;;;;;4.30;1.50;;;;;;;26.88;35.87;98906.89;1781041;78;21036;-72
2022/06/21 06:47:28;;;;;;;3.58;1.42;;;;;;;26.99;36.26;98911.27;1784056;78;21935;-71
2022/06/21 06:50:05;;;;;;;1.62;1.22;;;;;;;27.12;32.58;98905.95;1774861;78;21035;-71
2022/06/21 06:52:44;;;;;;;5.72;1.20;;;;;;;27.27;31.75;98911.95;1784665;78;21071;-71
2022/06/21 06:55:47;;;;;;;7.70;1.40;;;;;;;27.41;32.13;98904.96;1776404;78;21478;-72
2022/06/21 06:58:24;;;;;;;4.28;1.30;;;;;;;27.53;31.78;98916.91;1808212;78;21046;-72
2022/06/21 07:00:55;;;;;;;3.22;1.37;;;;;;;27.63;31.39;98893.88;1779313;78;21810;-73
2022/06/21 07:03:29;;;;;;;2.25;1.40;;;;;;;27.71;31.63;98893.38;1781259;80;20996;-74
2022/06/21 07:06:07;;;;;;;3.20;1.30;;;;;;;27.78;31.35;98897.98;1786191;78;21020;-74
2022/06/21 07:09:03;;;;;;;2.90;1.27;;;;;;;27.82;31.30;98899.09;1733522;79;21469;-74
2022/06/21 07:11:41;;;;;;;2.22;1.20;;;;;;;27.89;31.55;98905.06;1782509;78;21028;-75
2022/06/21 07:14:24;;;;;;;4.28;1.17;;;;;;;27.99;31.42;98889.33;1784070;78;21522;-73
2022/06/21 07:17:18;;;;;;;4.40;1.42;;;;;;;28.08;30.62;98902.59;1788788;78;21474;-73
2022/06/21 07:19:45;;;;;;;6.42;1.42;;;;;;;28.10;30.58;98877.92;1782044;78;21044;-72
2022/06/21 07:22:19;;;;;;;4.80;1.40;;;;;;;28.13;30.35;98880.08;1786594;78;21070;-71
2022/06/21 07:24:57;;;;;;;2.22;1.30;;;;;;;28.17;30.58;98876.53;1785357;78;21023;-74
2022/06/21 07:27:26;;;;;;;1.98;1.20;;;;;;;28.23;30.58;98870.56;1787136;78;22724;-73
2022/06/21 07:30:00;;;;;;;2.85;1.30;;;;;;;28.33;30.69;98874.66;1784271;78;21033;-75
2022/06/21 07:32:38;;;;;;;7.05;5.45;;;;;;;28.45;31.09;98858.05;1783469;78;21055;-72
2022/06/21 07:35:10;;;;;;;3.40;1.90;;;;;;;28.55;30.94;98851.23;1787523;80;22174;-72
2022/06/21 07:37:46;;;;;;;3.35;1.45;;;;;;;28.64;30.82;98849.58;1797884;78;21608;-71
2022/06/21 07:40:27;;;;;;;6.97;4.67;;;;;;;28.71;30.84;98856.09;1791795;77;21644;-73
2022/06/21 07:43:19;;;;;;;3.27;1.90;;;;;;;28.69;31.97;98857.73;1778684;80;21025;-72
2022/06/21 07:45:49;;;;;;;2.60;1.35;;;;;;;28.76;31.23;98858.25;1778383;80;21032;-74
2022/06/21 07:48:27;;;;;;;5.60;3.55;;;;;;;28.90;31.07;98861.20;1778102;80;21023;-74
2022/06/21 07:50:59;;;;;;;6.20;3.12;;;;;;;29.00;31.01;98865.78;1776685;80;21082;-74
2022/06/21 07:53:45;;;;;;;5.85;5.25;;;;;;;29.04;30.67;98855.42;1779074;80;21794;-73
2022/06/21 07:56:29;;;;;;;3.50;1.40;;;;;;;29.12;29.72;98864.09;1771580;80;20988;-73
2022/06/21 07:59:16;;;;;;;3.10;1.25;;;;;;;29.16;30.08;98855.66;1748122;82;21071;-73
2022/06/21 08:07:36;;;;;;;2.85;1.05;;;;;;;29.55;27.63;98858.44;1761369;78;21820;-75
2022/06/21 08:10:33;;;;;;;5.03;1.10;;;;;;;29.62;28.10;98849.38;1778480;80;21034;-75
2022/06/21 08:13:00;;;;;;;1.25;0.98;;;;;;;29.81;26.95;98848.16;1778555;80;21046;-77
2022/06/21 08:15:30;;;;;;;2.95;0.90;;;;;;;29.81;26.95;98848.16;1779057;80;21039;-76
2022/06/21 08:18:04;;;;;;;2.98;1.20;;;;;;;29.89;27.49;98855.71;1777737;78;21018;-76
2022/06/21 08:20:36;;;;;;;3.20;0.95;;;;;;;29.98;26.24;98843.11;1786672;78;21855;-73
2022/06/21 08:23:08;;;;;;;2.08;1.10;;;;;;;29.99;27.10;98834.39;1777314;80;21091;-73
2022/06/21 08:26:00;;;;;;;3.70;2.33;;;;;;;29.97;25.91;98829.78;1775896;78;21028;-73
2022/06/21 08:29:03;;;;;;;23.42;21.02;;;;;;;30.00;25.37;98838.73;1767467;80;21144;-74
2022/06/21 08:31:37;;;;;;;4.12;1.20;;;;;;;30.05;26.00;98842.23;1776342;80;21558;-75
2022/06/21 08:34:26;;;;;;;3.85;1.47;;;;;;;30.10;26.12;98840.84;1774357;80;22617;-73
2022/06/21 08:36:56;;;;;;;4.00;1.20;;;;;;;30.13;27.17;98844.92;1777532;78;21039;-74
2022/06/21 08:39:49;;;;;;;2.98;1.50;;;;;;;30.20;25.87;98839.38;1777101;78;21044;-73
2022/06/21 08:42:54;;;;;;;4.47;1.30;;;;;;;30.22;26.66;98838.30;1778975;80;21202;-71
2022/06/21 08:45:41;;;;;;;6.70;5.92;;;;;;;30.30;26.77;98839.02;1775529;78;22181;-71
2022/06/21 08:48:42;;;;;;;6.67;1.55;;;;;;;30.46;26.15;98829.59;1779112;78;21723;-71
2022/06/21 08:51:49;;;;;;;3.95;1.00;;;;;;;30.57;25.85;98852.08;1777423;80;21050;-71
2022/06/21 08:54:48;;;;;;;3.02;1.00;;;;;;;30.41;26.54;98820.94;1779105;78;21039;-71
2022/06/21 08:57:44;;;;;;;1.70;0.93;;;;;;;30.35;25.40;98822.08;1778645;80;21079;-71
2022/06/21 09:00:33;;;;;;;4.62;1.47;;;;;;;30.36;25.78;98819.61;1779470;80;20960;-70
2022/06/21 09:03:23;;;;;;;5.05;1.87;;;;;;;30.44;25.50;98822.27;1769582;79;22504;-69
2022/06/21 09:06:05;;;;;;;4.20;1.05;;;;;;;30.53;25.96;98809.63;1780353;80;20938;-70
2022/06/21 09:09:09;;;;;;;4.08;2.87;;;;;;;30.66;26.45;98814.39;1780365;80;20952;-70
2022/06/21 09:11:50;;;;;;;7.03;1.35;;;;;;;30.73;26.50;98805.31;1777393;78;21009;-70
2022/06/21 09:14:55;;;;;;;1.05;0.95;;;;;;;30.79;25.61;98804.70;1774451;80;20942;-69
2022/06/21 09:18:13;;;;;;;4.03;0.80;;;;;;;30.82;24.92;98810.13;1780712;80;21844;-70
2022/06/21 09:20:57;;;;;;;3.30;1.00;;;;;;;30.85;24.40;98799.43;1780720;80;20972;-68
2022/06/21 09:24:06;;;;;;;2.52;0.90;;;;;;;30.92;24.92;98805.89;1781064;80;21359;-69
2022/06/21 09:26:57;;;;;;;2.58;1.00;;;;;;;30.93;24.84;98797.97;1750643;78;21471;-72
2022/06/21 09:29:56;;;;;;;2.70;0.93;;;;;;;30.98;24.54;98803.34;1780876;80;20985;-70
2022/06/21 09:33:02;;;;;;;1.20;0.80;;;;;;;31.04;24.05;98799.45;1780692;80;21471;-70
2022/06/21 09:35:46;;;;;;;3.65;1.10;;;;;;;31.21;24.63;98790.23;1781026;80;21040;-69
2022/06/21 09:38:54;;;;;;;2.08;0.80;;;;;;;31.38;24.77;98774.70;1780643;80;20972;-69
2022/06/21 09:41:41;;;;;;;4.92;1.00;;;;;;;31.46;22.40;98771.83;1780589;79;21052;-70
2022/06/21 09:44:29;;;;;;;3.25;1.02;;;;;;;31.49;23.62;98772.06;1788887;78;20984;-69
2022/06/21 09:47:11;;;;;;;2.90;0.90;;;;;;;31.54;23.45;98772.52;1797689;78;22481;-69
2022/06/21 09:50:18;;;;;;;2.60;0.90;;;;;;;31.54;23.95;98776.06;1780723;80;20937;-69
2022/06/21 09:53:04;;;;;;;1.22;0.90;;;;;;;31.65;23.85;98778.61;1780624;80;21044;-68
2022/06/21 09:55:43;;;;;;;4.67;1.07;;;;;;;31.71;22.67;98783.70;1780506;80;20937;-69
2022/06/21 09:58:18;;;;;;;2.90;1.00;;;;;;;31.65;22.79;98773.97;1780752;80;20941;-69
2022/06/21 10:01:00;;;;;;;2.80;1.00;;;;;;;31.66;22.80;98770.71;1781681;78;21957;-69
2022/06/21 10:03:43;;;;;;;3.62;1.00;;;;;;;31.70;22.46;98769.80;1821829;78;20980;-70
2022/06/21 10:06:51;;;;;;;1.87;1.00;;;;;;;31.78;22.72;98759.59;1821555;78;21130;-69
2022/06/21 10:10:16;;;;;;;3.50;1.10;;;;;;;31.92;23.73;98753.33;1821542;78;21062;-69
2022/06/21 10:13:26;;;;;;;2.77;1.12;;;;;;;32.04;22.81;98752.28;1821550;78;21000;-69
2022/06/21 10:16:06;;;;;;;2.75;1.10;;;;;;;32.09;22.87;98748.09;1821629;78;21009;-69
2022/06/21 10:18:56;;;;;;;1.25;0.90;;;;;;;32.14;23.52;98745.28;1787548;78;20953;-69
2022/06/21 10:21:56;;;;;;;6.58;1.10;;;;;;;32.26;21.94;98736.02;1780981;80;20961;-69
2022/06/21 10:24:49;;;;;;;1.65;0.85;;;;;;;32.29;23.07;98751.80;1780195;80;20999;-69
2022/06/21 10:28:09;;;;;;;9.35;1.12;;;;;;;32.43;23.46;98739.54;1780664;80;20988;-69
2022/06/21 10:31:10;;;;;;;4.53;1.00;;;;;;;32.67;23.26;98729.72;1780558;79;21968;-70
2022/06/21 10:33:56;;;;;;;3.12;1.20;;;;;;;32.93;22.91;98729.44;1749842;82;20976;-70
2022/06/21 10:36:57;;;;;;;1.05;0.90;;;;;;;33.03;23.39;98714.16;1773844;78;20960;-70
2022/06/21 10:39:49;;;;;;;2.42;1.00;;;;;;;33.02;22.96;98718.57;1773467;80;20940;-69
2022/06/21 10:42:46;;;;;;;3.80;0.95;;;;;;;33.00;23.04;98712.58;1739239;81;21062;-69
2022/06/21 10:45:27;;;;;;;1.20;0.90;;;;;;;33.07;22.34;98703.95;1737498;82;21829;-70
2022/06/21 10:48:44;;;;;;;4.12;1.07;;;;;;;33.10;22.81;98690.45;1738077;82;21043;-70
2022/06/21 10:51:40;;;;;;;1.27;0.90;;;;;;;33.14;22.89;98694.20;1748392;82;20950;-70
2022/06/21 10:54:41;;;;;;;3.33;1.20;;;;;;;33.18;22.61;98690.27;1727529;82;21521;-70
2022/06/21 10:57:53;;;;;;;4.65;1.20;;;;;;;33.40;22.70;98685.39;1727705;83;21512;-70
2022/06/21 11:04:07;;;;;;;3.12;1.20;;;;;;;33.51;23.74;98681.27;1727836;83;21010;-70
2022/06/21 11:07:09;;;;;;;5.08;1.15;;;;;;;33.53;23.08;98668.88;1727680;82;21570;-70
2022/06/21 11:09:47;;;;;;;3.77;1.15;;;;;;;33.58;22.86;98660.51;1748959;80;21231;-70
2022/06/21 11:12:56;;;;;;;2.65;1.20;;;;;;;33.65;23.01;98676.49;1775518;80;20980;-71
2022/06/21 11:15:50;;;;;;;3.62;1.10;;;;;;;33.63;23.18;98667.80;1776897;80;21867;-70
2022/06/21 11:18:41;;;;;;;2.10;1.30;;;;;;;33.65;23.17;98662.00;1776433;80;21518;-70
2022/06/21 11:21:39;;;;;;;2.10;1.10;;;;;;;33.70;22.97;98644.88;1746060;82;21054;-71
2022/06/21 11:24:11;;;;;;;4.75;1.22;;;;;;;33.71;22.93;98638.28;1744413;81;21063;-70
2022/06/21 11:27:22;;;;;;;2.17;1.12;;;;;;;33.72;23.00;98632.23;1730124;80;21004;-71
2022/06/21 11:30:09;;;;;;;5.00;1.17;;;;;;;33.80;23.57;98634.20;1776478;80;21803;-70
2022/06/21 11:32:53;;;;;;;3.77;1.05;;;;;;;33.97;22.95;98628.82;1776453;80;21000;-71
2022/06/21 11:35:51;;;;;;;4.45;1.30;;;;;;;33.98;23.19;98628.26;1776486;80;21463;-70
2022/06/21 11:38:38;;;;;;;3.00;1.25;;;;;;;34.09;22.92;98626.83;1776794;80;20984;-70
2022/06/21 11:44:13;;;;;;;2.65;1.25;;;;;;;34.26;23.24;98615.07;1777801;79;22530;-70
2022/06/21 11:46:48;;;;;;;2.95;1.30;;;;;;;34.29;23.08;98607.59;1776457;80;20946;-70
2022/06/21 11:49:45;;;;;;;4.40;1.30;;;;;;;34.30;23.60;98603.16;1776501;80;21083;-70
2022/06/21 11:52:42;;;;;;;2.70;1.20;;;;;;;34.39;23.07;98604.58;1746048;82;21052;-71
2022/06/21 11:55:43;;;;;;;3.12;1.37;;;;;;;34.44;23.22;98598.92;1746082;81;20912;-71
2022/06/21 11:58:30;;;;;;;7.10;1.30;;;;;;;34.53;23.11;98597.55;1745754;82;22602;-71
2022/06/21 12:01:17;;;;;;;4.78;1.30;;;;;;;34.56;23.02;98595.55;1765301;79;20957;-70
2022/06/21 12:04:25;;;;;;;10.38;1.32;;;;;;;34.52;22.61;98624.16;1776498;80;21071;-71
2022/06/21 12:07:11;;;;;;;4.20;1.30;;;;;;;34.49;23.24;98587.00;1776487;80;21432;-70
2022/06/21 12:09:59;;;;;;;6.33;1.27;;;;;;;34.58;23.04;98596.84;1776523;80;21048;-70
2022/06/21 12:13:01;;;;;;;4.87;1.50;;;;;;;34.46;23.35;98584.91;1776517;80;20992;-70
2022/06/21 12:15:45;;;;;;;5.75;1.40;;;;;;;34.47;23.31;98586.52;1776346;80;21520;-71
2022/06/21 12:18:17;;;;;;;2.67;1.20;;;;;;;34.68;24.01;98596.51;1777590;79;20992;-71
2022/06/21 12:20:58;;;;;;;4.67;1.77;;;;;;;34.70;23.52;98592.06;1776677;80;21005;-71
2022/06/21 12:23:44;;;;;;;3.98;1.40;;;;;;;34.60;23.28;98604.73;1776662;80;21471;-71
2022/06/21 12:26:19;;;;;;;3.10;1.30;;;;;;;34.23;23.12;98606.94;1776540;80;22550;-70
2022/06/21 12:28:45;;;;;;;2.85;1.25;;;;;;;33.85;23.79;98607.47;1776633;80;21063;-70
2022/06/21 12:31:26;;;;;;;5.45;1.42;;;;;;;33.62;23.91;98614.16;1776388;80;20989;-70
2022/06/21 12:34:03;;;;;;;4.08;1.30;;;;;;;33.54;24.55;98621.21;1777690;79;21051;-70
2022/06/21 12:36:51;;;;;;;5.67;1.30;;;;;;;33.72;24.51;98622.09;1766866;80;20972;-71
2022/06/21 12:39:45;;;;;;;3.20;1.20;;;;;;;33.78;24.40;98615.89;1776370;80;22507;-70
2022/06/21 12:42:26;;;;;;;3.02;1.27;;;;;;;33.56;24.18;98609.94;1777966;80;21445;-71
2022/06/21 12:45:35;;;;;;;3.83;1.40;;;;;;;33.16;24.84;98607.14;1764889;80;20972;-70
2022/06/21 12:48:41;;;;;;;9.43;1.50;;;;;;;32.90;25.26;98613.80;1780588;80;20957;-70
2022/06/21 12:51:29;;;;;;;3.85;1.30;;;;;;;32.85;25.59;98618.61;1780456;78;20989;-70
2022/06/21 12:54:20;;;;;;;2.83;1.40;;;;;;;32.76;26.00;98604.84;1774915;80;21790;-70
2022/06/21 12:57:07;;;;;;;8.20;1.45;;;;;;;32.81;26.20;98606.07;1773661;80;20997;-71